Terminal Aerodrome Forecast
Issued by NWS

Home | Current Version | Previous Version | Text Only | Print | Product List | Glossary On
Versions: 1 2 3 4 5 6 7 8 9 10 11 12 13 14 15 16 17 18 19
136
FTUS43 KICT 211136
TAFRSL
TAF
KRSL 211136Z 2112/2212 02008KT 2SM BR SCT002 OVC009
      TEMPO 2112/2114 1/2SM FG OVC002
     FM211400 02008KT 2SM BR OVC008
     FM211600 03011KT 6SM BR VCSH BKN008
     FM220000 35012KT 5SM -RASN BR OVC008
     FM220500 33016G24KT 1SM -SN BR OVC003
     FM220700 33020G28KT 1SM -SN BR BLSN OVC003=

USA.gov is the U.S. government's official web portal to all federal, state and local government web resources and services.